sensor_id;sensor_type;location;lat;lon;timestamp;temperature;humidity
17954;DHT22;9102;53.548;9.926;2023-03-17T00:00:21;6.20;99.90
17954;DHT22;9102;53.548;9.926;2023-03-17T00:02:49;6.20;99.90
17954;DHT22;9102;53.548;9.926;2023-03-17T00:05:21;6.20;99.90
17954;DHT22;9102;53.548;9.926;2023-03-17T00:07:49;6.20;99.90
17954;DHT22;9102;53.548;9.926;2023-03-17T00:10:19;6.20;99.90
17954;DHT22;9102;53.548;9.926;2023-03-17T00:12:47;6.20;99.90
17954;DHT22;9102;53.548;9.926;2023-03-17T00:15:15;6.20;99.90
17954;DHT22;9102;53.548;9.926;2023-03-17T00:17:43;6.20;99.90
17954;DHT22;9102;53.548;9.926;2023-03-17T00:20:18;6.20;99.90
17954;DHT22;9102;53.548;9.926;2023-03-17T00:22:46;6.20;99.90
17954;DHT22;9102;53.548;9.926;2023-03-17T00:25:18;6.30;99.90
17954;DHT22;9102;53.548;9.926;2023-03-17T00:27:46;6.30;99.90
17954;DHT22;9102;53.548;9.926;2023-03-17T00:30:14;6.30;99.90
17954;DHT22;9102;53.548;9.926;2023-03-17T00:32:42;6.30;99.90
17954;DHT22;9102;53.548;9.926;2023-03-17T00:35:17;6.20;99.90
17954;DHT22;9102;53.548;9.926;2023-03-17T00:37:44;6.20;99.90
17954;DHT22;9102;53.548;9.926;2023-03-17T00:40:15;6.20;99.90
17954;DHT22;9102;53.548;9.926;2023-03-17T00:42:43;6.20;99.90
17954;DHT22;9102;53.548;9.926;2023-03-17T00:45:11;6.20;99.90
17954;DHT22;9102;53.548;9.926;2023-03-17T00:47:38;6.20;99.90
17954;DHT22;9102;53.548;9.926;2023-03-17T00:50:08;6.10;99.90
17954;DHT22;9102;53.548;9.926;2023-03-17T00:52:37;6.10;99.90
17954;DHT22;9102;53.548;9.926;2023-03-17T00:55:06;6.10;99.90
17954;DHT22;9102;53.548;9.926;2023-03-17T00:57:33;6.00;99.90
17954;DHT22;9102;53.548;9.926;2023-03-17T01:00:01;6.00;99.90
17954;DHT22;9102;53.548;9.926;2023-03-17T01:02:28;5.90;99.90
17954;DHT22;9102;53.548;9.926;2023-03-17T01:04:56;5.90;99.90
17954;DHT22;9102;53.548;9.926;2023-03-17T01:07:25;5.90;99.90
17954;DHT22;9102;53.548;9.926;2023-03-17T01:09:54;5.90;99.90
17954;DHT22;9102;53.548;9.926;2023-03-17T01:12:20;5.90;99.90
17954;DHT22;9102;53.548;9.926;2023-03-17T01:14:47;5.90;99.90
17954;DHT22;9102;53.548;9.926;2023-03-17T01:17:16;5.80;99.90
17954;DHT22;9102;53.548;9.926;2023-03-17T01:19:44;5.80;99.90
17954;DHT22;9102;53.548;9.926;2023-03-17T01:22:11;5.90;99.90
17954;DHT22;9102;53.548;9.926;2023-03-17T01:24:41;5.80;99.90
17954;DHT22;9102;53.548;9.926;2023-03-17T01:27:10;5.80;99.90
17954;DHT22;9102;53.548;9.926;2023-03-17T01:29:37;5.80;99.90
17954;DHT22;9102;53.548;9.926;2023-03-17T01:32:04;5.80;99.90
17954;DHT22;9102;53.548;9.926;2023-03-17T01:34:31;5.70;99.90
17954;DHT22;9102;53.548;9.926;2023-03-17T01:36:58;5.70;99.90
17954;DHT22;9102;53.548;9.926;2023-03-17T01:39:26;5.60;99.90
17954;DHT22;9102;53.548;9.926;2023-03-17T01:41:52;5.60;99.90
17954;DHT22;9102;53.548;9.926;2023-03-17T01:44:23;5.60;99.90
17954;DHT22;9102;53.548;9.926;2023-03-17T01:46:50;5.50;99.90
17954;DHT22;9102;53.548;9.926;2023-03-17T01:49:22;5.50;99.90
17954;DHT22;9102;53.548;9.926;2023-03-17T01:51:54;5.50;99.90
17954;DHT22;9102;53.548;9.926;2023-03-17T01:54:25;5.50;99.90
17954;DHT22;9102;53.548;9.926;2023-03-17T01:56:57;5.50;99.90
17954;DHT22;9102;53.548;9.926;2023-03-17T01:59:31;5.50;99.90
17954;DHT22;9102;53.548;9.926;2023-03-17T02:02:02;5.50;99.90
17954;DHT22;9102;53.548;9.926;2023-03-17T02:04:29;5.50;99.90
17954;DHT22;9102;53.548;9.926;2023-03-17T02:06:57;5.50;99.90
17954;DHT22;9102;53.548;9.926;2023-03-17T02:09:25;5.50;99.90
17954;DHT22;9102;53.548;9.926;2023-03-17T02:11:53;5.50;99.90
17954;DHT22;9102;53.548;9.926;2023-03-17T02:14:20;5.50;99.90
17954;DHT22;9102;53.548;9.926;2023-03-17T02:16:49;5.50;99.90
17954;DHT22;9102;53.548;9.926;2023-03-17T02:19:16;5.50;99.90
17954;DHT22;9102;53.548;9.926;2023-03-17T02:21:45;5.50;99.90
17954;DHT22;9102;53.548;9.926;2023-03-17T02:24:19;5.60;99.90
17954;DHT22;9102;53.548;9.926;2023-03-17T02:26:48;5.50;99.90
17954;DHT22;9102;53.548;9.926;2023-03-17T02:29:18;5.60;99.90
17954;DHT22;9102;53.548;9.926;2023-03-17T02:31:45;5.50;99.90
17954;DHT22;9102;53.548;9.926;2023-03-17T02:34:12;5.50;99.90
17954;DHT22;9102;53.548;9.926;2023-03-17T02:36:40;5.50;99.90
17954;DHT22;9102;53.548;9.926;2023-03-17T02:39:08;5.50;99.90
17954;DHT22;9102;53.548;9.926;2023-03-17T02:41:35;5.50;99.90
17954;DHT22;9102;53.548;9.926;2023-03-17T02:44:02;5.50;99.90
17954;DHT22;9102;53.548;9.926;2023-03-17T02:46:29;5.50;99.90
17954;DHT22;9102;53.548;9.926;2023-03-17T02:48:56;5.40;99.90
17954;DHT22;9102;53.548;9.926;2023-03-17T02:51:23;5.40;99.90
17954;DHT22;9102;53.548;9.926;2023-03-17T02:53:50;5.40;99.90
17954;DHT22;9102;53.548;9.926;2023-03-17T02:56:18;5.50;99.90
17954;DHT22;9102;53.548;9.926;2023-03-17T02:58:45;5.50;99.90
17954;DHT22;9102;53.548;9.926;2023-03-17T03:01:12;5.40;99.90
17954;DHT22;9102;53.548;9.926;2023-03-17T03:03:38;5.40;99.90
17954;DHT22;9102;53.548;9.926;2023-03-17T03:06:06;5.40;99.90
17954;DHT22;9102;53.548;9.926;2023-03-17T03:08:33;5.40;99.90
17954;DHT22;9102;53.548;9.926;2023-03-17T03:11:00;5.40;99.90
17954;DHT22;9102;53.548;9.926;2023-03-17T03:13:28;5.40;99.90
17954;DHT22;9102;53.548;9.926;2023-03-17T03:15:55;5.40;99.90
17954;DHT22;9102;53.548;9.926;2023-03-17T03:18:23;5.40;99.90
17954;DHT22;9102;53.548;9.926;2023-03-17T03:20:50;5.40;99.90
17954;DHT22;9102;53.548;9.926;2023-03-17T03:23:17;5.40;99.90
17954;DHT22;9102;53.548;9.926;2023-03-17T03:25:44;5.40;99.90
17954;DHT22;9102;53.548;9.926;2023-03-17T03:28:11;5.30;99.90
17954;DHT22;9102;53.548;9.926;2023-03-17T03:30:39;5.30;99.90
17954;DHT22;9102;53.548;9.926;2023-03-17T03:33:09;5.30;99.90
17954;DHT22;9102;53.548;9.926;2023-03-17T03:35:37;5.30;99.90
17954;DHT22;9102;53.548;9.926;2023-03-17T03:38:04;5.20;99.90
17954;DHT22;9102;53.548;9.926;2023-03-17T03:40:31;5.30;99.90
17954;DHT22;9102;53.548;9.926;2023-03-17T03:42:59;5.30;99.90
17954;DHT22;9102;53.548;9.926;2023-03-17T03:45:26;5.20;99.90
17954;DHT22;9102;53.548;9.926;2023-03-17T03:47:55;5.20;99.90
17954;DHT22;9102;53.548;9.926;2023-03-17T03:50:22;5.20;99.90
17954;DHT22;9102;53.548;9.926;2023-03-17T03:52:49;5.20;99.90
17954;DHT22;9102;53.548;9.926;2023-03-17T03:55:16;5.10;99.90
17954;DHT22;9102;53.548;9.926;2023-03-17T03:57:43;5.10;99.90
17954;DHT22;9102;53.548;9.926;2023-03-17T04:00:11;5.10;99.90
17954;DHT22;9102;53.548;9.926;2023-03-17T04:02:39;5.10;99.90
17954;DHT22;9102;53.548;9.926;2023-03-17T04:05:08;5.10;99.90
17954;DHT22;9102;53.548;9.926;2023-03-17T04:07:35;5.10;99.90
17954;DHT22;9102;53.548;9.926;2023-03-17T04:10:02;5.10;99.90
17954;DHT22;9102;53.548;9.926;2023-03-17T04:12:29;5.10;99.90
17954;DHT22;9102;53.548;9.926;2023-03-17T04:14:56;5.00;99.90
17954;DHT22;9102;53.548;9.926;2023-03-17T04:17:23;5.00;99.90
17954;DHT22;9102;53.548;9.926;2023-03-17T04:19:50;5.00;99.90
17954;DHT22;9102;53.548;9.926;2023-03-17T04:22:18;5.00;99.90
17954;DHT22;9102;53.548;9.926;2023-03-17T04:24:45;5.00;99.90
17954;DHT22;9102;53.548;9.926;2023-03-17T04:27:12;5.00;99.90
17954;DHT22;9102;53.548;9.926;2023-03-17T04:29:40;5.00;99.90
17954;DHT22;9102;53.548;9.926;2023-03-17T04:32:07;5.00;99.90
17954;DHT22;9102;53.548;9.926;2023-03-17T04:34:34;5.00;99.90
17954;DHT22;9102;53.548;9.926;2023-03-17T04:37:01;5.00;99.90
17954;DHT22;9102;53.548;9.926;2023-03-17T04:39:29;5.00;99.90
17954;DHT22;9102;53.548;9.926;2023-03-17T04:41:56;4.90;99.90
17954;DHT22;9102;53.548;9.926;2023-03-17T04:44:23;4.80;99.90
17954;DHT22;9102;53.548;9.926;2023-03-17T04:46:50;4.90;99.90
17954;DHT22;9102;53.548;9.926;2023-03-17T04:49:17;4.90;99.90
17954;DHT22;9102;53.548;9.926;2023-03-17T04:51:43;4.80;99.90
17954;DHT22;9102;53.548;9.926;2023-03-17T04:54:11;4.80;99.90
17954;DHT22;9102;53.548;9.926;2023-03-17T04:56:39;4.80;99.90
17954;DHT22;9102;53.548;9.926;2023-03-17T04:59:06;4.80;99.90
17954;DHT22;9102;53.548;9.926;2023-03-17T05:01:33;4.70;99.90
17954;DHT22;9102;53.548;9.926;2023-03-17T05:04:01;4.70;99.90
17954;DHT22;9102;53.548;9.926;2023-03-17T05:06:28;4.70;99.90
17954;DHT22;9102;53.548;9.926;2023-03-17T05:08:55;4.70;99.90
17954;DHT22;9102;53.548;9.926;2023-03-17T05:11:22;4.70;99.90
17954;DHT22;9102;53.548;9.926;2023-03-17T05:13:50;4.60;99.90
17954;DHT22;9102;53.548;9.926;2023-03-17T05:16:17;4.60;99.90
17954;DHT22;9102;53.548;9.926;2023-03-17T05:18:44;4.60;99.90
17954;DHT22;9102;53.548;9.926;2023-03-17T05:21:11;4.60;99.90
17954;DHT22;9102;53.548;9.926;2023-03-17T05:23:38;4.60;99.90
17954;DHT22;9102;53.548;9.926;2023-03-17T05:26:05;4.50;99.90
17954;DHT22;9102;53.548;9.926;2023-03-17T05:28:32;4.50;99.90
17954;DHT22;9102;53.548;9.926;2023-03-17T05:31:00;4.50;99.90
17954;DHT22;9102;53.548;9.926;2023-03-17T05:33:28;4.50;99.90
17954;DHT22;9102;53.548;9.926;2023-03-17T05:35:55;4.50;99.90
17954;DHT22;9102;53.548;9.926;2023-03-17T05:38:23;4.50;99.90
17954;DHT22;9102;53.548;9.926;2023-03-17T05:40:50;4.50;99.90
17954;DHT22;9102;53.548;9.926;2023-03-17T05:43:17;4.50;99.90
17954;DHT22;9102;53.548;9.926;2023-03-17T05:45:44;4.50;99.90
17954;DHT22;9102;53.548;9.926;2023-03-17T05:48:13;4.50;99.90
17954;DHT22;9102;53.548;9.926;2023-03-17T05:50:40;4.50;99.90
17954;DHT22;9102;53.548;9.926;2023-03-17T05:53:07;4.50;99.90
17954;DHT22;9102;53.548;9.926;2023-03-17T05:55:34;4.60;99.90
17954;DHT22;9102;53.548;9.926;2023-03-17T05:58:01;4.50;99.90
17954;DHT22;9102;53.548;9.926;2023-03-17T06:00:29;4.60;99.90
17954;DHT22;9102;53.548;9.926;2023-03-17T06:02:56;4.60;99.90
17954;DHT22;9102;53.548;9.926;2023-03-17T06:05:24;4.70;99.90
17954;DHT22;9102;53.548;9.926;2023-03-17T06:07:51;4.60;99.90
17954;DHT22;9102;53.548;9.926;2023-03-17T06:10:18;4.70;99.90
17954;DHT22;9102;53.548;9.926;2023-03-17T06:12:45;4.70;99.90
17954;DHT22;9102;53.548;9.926;2023-03-17T06:15:12;4.70;99.90
17954;DHT22;9102;53.548;9.926;2023-03-17T06:17:41;4.70;99.90
17954;DHT22;9102;53.548;9.926;2023-03-17T06:20:10;4.80;99.90
17954;DHT22;9102;53.548;9.926;2023-03-17T06:22:39;4.80;99.90
17954;DHT22;9102;53.548;9.926;2023-03-17T06:25:07;4.80;99.90
17954;DHT22;9102;53.548;9.926;2023-03-17T06:27:34;4.80;99.90
17954;DHT22;9102;53.548;9.926;2023-03-17T06:30:02;4.90;99.90
17954;DHT22;9102;53.548;9.926;2023-03-17T06:32:29;4.90;99.90
17954;DHT22;9102;53.548;9.926;2023-03-17T06:34:56;5.00;99.90
17954;DHT22;9102;53.548;9.926;2023-03-17T06:37:23;5.00;99.90
17954;DHT22;9102;53.548;9.926;2023-03-17T06:39:51;5.10;99.90
17954;DHT22;9102;53.548;9.926;2023-03-17T06:42:18;5.10;99.90
17954;DHT22;9102;53.548;9.926;2023-03-17T06:44:45;5.10;99.90
17954;DHT22;9102;53.548;9.926;2023-03-17T06:47:12;5.20;99.90
17954;DHT22;9102;53.548;9.926;2023-03-17T06:49:39;5.30;99.90
17954;DHT22;9102;53.548;9.926;2023-03-17T06:52:06;5.30;99.90
17954;DHT22;9102;53.548;9.926;2023-03-17T06:54:34;5.40;99.90
17954;DHT22;9102;53.548;9.926;2023-03-17T06:57:02;5.50;99.90
17954;DHT22;9102;53.548;9.926;2023-03-17T06:59:29;5.50;99.90
17954;DHT22;9102;53.548;9.926;2023-03-17T07:01:56;5.70;99.90
17954;DHT22;9102;53.548;9.926;2023-03-17T07:04:23;5.80;99.90
17954;DHT22;9102;53.548;9.926;2023-03-17T07:06:50;5.90;99.90
17954;DHT22;9102;53.548;9.926;2023-03-17T07:09:17;6.10;99.90
17954;DHT22;9102;53.548;9.926;2023-03-17T07:11:44;6.10;99.90
17954;DHT22;9102;53.548;9.926;2023-03-17T07:14:12;6.20;99.90
17954;DHT22;9102;53.548;9.926;2023-03-17T07:16:39;6.20;99.90
17954;DHT22;9102;53.548;9.926;2023-03-17T07:19:06;6.20;99.90
17954;DHT22;9102;53.548;9.926;2023-03-17T07:21:33;6.30;99.90
17954;DHT22;9102;53.548;9.926;2023-03-17T07:23:59;6.40;99.90
17954;DHT22;9102;53.548;9.926;2023-03-17T07:26:27;6.40;99.90
17954;DHT22;9102;53.548;9.926;2023-03-17T07:28:53;6.40;99.90
17954;DHT22;9102;53.548;9.926;2023-03-17T07:31:21;6.30;99.90
17954;DHT22;9102;53.548;9.926;2023-03-17T07:33:48;6.30;99.90
17954;DHT22;9102;53.548;9.926;2023-03-17T07:36:16;6.30;99.90
17954;DHT22;9102;53.548;9.926;2023-03-17T07:38:42;6.40;99.90
17954;DHT22;9102;53.548;9.926;2023-03-17T07:41:09;6.50;99.90
17954;DHT22;9102;53.548;9.926;2023-03-17T07:43:36;6.50;99.90
17954;DHT22;9102;53.548;9.926;2023-03-17T07:46:04;6.80;99.90
17954;DHT22;9102;53.548;9.926;2023-03-17T07:48:33;6.80;99.90
17954;DHT22;9102;53.548;9.926;2023-03-17T07:51:02;7.00;99.90
17954;DHT22;9102;53.548;9.926;2023-03-17T07:53:30;7.10;99.90
17954;DHT22;9102;53.548;9.926;2023-03-17T07:55:56;7.20;99.90
17954;DHT22;9102;53.548;9.926;2023-03-17T07:58:23;7.30;99.90
17954;DHT22;9102;53.548;9.926;2023-03-17T08:00:50;7.30;99.90
17954;DHT22;9102;53.548;9.926;2023-03-17T08:03:17;7.20;99.90
17954;DHT22;9102;53.548;9.926;2023-03-17T08:05:51;7.30;99.90
17954;DHT22;9102;53.548;9.926;2023-03-17T08:08:19;7.30;99.90
17954;DHT22;9102;53.548;9.926;2023-03-17T08:10:46;7.40;99.90
17954;DHT22;9102;53.548;9.926;2023-03-17T08:13:14;7.40;99.90
17954;DHT22;9102;53.548;9.926;2023-03-17T08:15:40;7.50;99.90
17954;DHT22;9102;53.548;9.926;2023-03-17T08:18:07;7.70;99.90
17954;DHT22;9102;53.548;9.926;2023-03-17T08:20:35;7.80;99.90
17954;DHT22;9102;53.548;9.926;2023-03-17T08:23:03;7.90;99.90
17954;DHT22;9102;53.548;9.926;2023-03-17T08:25:30;8.00;99.90
17954;DHT22;9102;53.548;9.926;2023-03-17T08:27:58;8.10;99.90
17954;DHT22;9102;53.548;9.926;2023-03-17T08:30:25;8.30;99.90
17954;DHT22;9102;53.548;9.926;2023-03-17T08:32:52;8.40;99.90
17954;DHT22;9102;53.548;9.926;2023-03-17T08:35:19;8.70;99.90
17954;DHT22;9102;53.548;9.926;2023-03-17T08:37:49;8.90;99.90
17954;DHT22;9102;53.548;9.926;2023-03-17T08:40:18;8.90;99.90
17954;DHT22;9102;53.548;9.926;2023-03-17T08:42:47;8.90;99.90
17954;DHT22;9102;53.548;9.926;2023-03-17T08:45:16;9.10;99.90
17954;DHT22;9102;53.548;9.926;2023-03-17T08:47:44;9.20;99.90
17954;DHT22;9102;53.548;9.926;2023-03-17T08:50:19;9.30;99.90
17954;DHT22;9102;53.548;9.926;2023-03-17T08:52:46;9.40;99.90
17954;DHT22;9102;53.548;9.926;2023-03-17T08:55:18;9.50;99.90
17954;DHT22;9102;53.548;9.926;2023-03-17T08:57:46;9.70;99.90
17954;DHT22;9102;53.548;9.926;2023-03-17T09:00:16;10.00;99.90
17954;DHT22;9102;53.548;9.926;2023-03-17T09:02:48;10.30;99.90
17954;DHT22;9102;53.548;9.926;2023-03-17T09:05:17;10.70;99.90
17954;DHT22;9102;53.548;9.926;2023-03-17T09:07:48;11.00;99.90
17954;DHT22;9102;53.548;9.926;2023-03-17T09:10:15;11.40;99.90
17954;DHT22;9102;53.548;9.926;2023-03-17T09:12:48;11.70;99.90
17954;DHT22;9102;53.548;9.926;2023-03-17T09:15:20;11.80;99.90
17954;DHT22;9102;53.548;9.926;2023-03-17T09:17:50;11.80;99.90
17954;DHT22;9102;53.548;9.926;2023-03-17T09:20:17;11.70;99.90
17954;DHT22;9102;53.548;9.926;2023-03-17T09:22:46;11.60;99.90
17954;DHT22;9102;53.548;9.926;2023-03-17T09:25:13;11.40;99.90
17954;DHT22;9102;53.548;9.926;2023-03-17T09:27:41;11.40;99.90
17954;DHT22;9102;53.548;9.926;2023-03-17T09:30:10;11.30;99.90
17954;DHT22;9102;53.548;9.926;2023-03-17T09:32:39;11.30;99.90
17954;DHT22;9102;53.548;9.926;2023-03-17T09:35:06;11.40;99.90
17954;DHT22;9102;53.548;9.926;2023-03-17T09:37:33;11.60;99.90
17954;DHT22;9102;53.548;9.926;2023-03-17T09:40:00;11.80;99.90
17954;DHT22;9102;53.548;9.926;2023-03-17T09:42:41;12.10;99.90
17954;DHT22;9102;53.548;9.926;2023-03-17T09:45:29;12.20;99.90
17954;DHT22;9102;53.548;9.926;2023-03-17T09:48:22;12.50;99.90
17954;DHT22;9102;53.548;9.926;2023-03-17T09:50:54;12.70;99.90
17954;DHT22;9102;53.548;9.926;2023-03-17T09:53:28;12.80;99.90
17954;DHT22;9102;53.548;9.926;2023-03-17T09:56:00;13.10;99.90
17954;DHT22;9102;53.548;9.926;2023-03-17T09:58:36;13.00;99.90
17954;DHT22;9102;53.548;9.926;2023-03-17T10:03:49;13.00;99.90
17954;DHT22;9102;53.548;9.926;2023-03-17T10:06:32;13.10;99.90
17954;DHT22;9102;53.548;9.926;2023-03-17T10:09:14;13.40;99.90
17954;DHT22;9102;53.548;9.926;2023-03-17T10:12:02;13.70;99.90
17954;DHT22;9102;53.548;9.926;2023-03-17T10:14:39;13.80;99.90
17954;DHT22;9102;53.548;9.926;2023-03-17T10:17:13;13.70;99.90
17954;DHT22;9102;53.548;9.926;2023-03-17T10:19:58;13.80;99.30
17954;DHT22;9102;53.548;9.926;2023-03-17T10:22:34;13.80;98.70
17954;DHT22;9102;53.548;9.926;2023-03-17T10:25:16;13.70;98.90
17954;DHT22;9102;53.548;9.926;2023-03-17T10:27:47;13.70;98.60
17954;DHT22;9102;53.548;9.926;2023-03-17T10:30:22;13.90;98.50
17954;DHT22;9102;53.548;9.926;2023-03-17T10:32:54;14.00;97.60
17954;DHT22;9102;53.548;9.926;2023-03-17T10:35:35;14.20;97.20
17954;DHT22;9102;53.548;9.926;2023-03-17T10:38:16;14.20;97.10
17954;DHT22;9102;53.548;9.926;2023-03-17T10:40:47;13.90;98.00
17954;DHT22;9102;53.548;9.926;2023-03-17T10:43:36;13.80;99.10
17954;DHT22;9102;53.548;9.926;2023-03-17T10:46:18;13.50;99.40
17954;DHT22;9102;53.548;9.926;2023-03-17T10:49:15;13.20;99.90
17954;DHT22;9102;53.548;9.926;2023-03-17T10:51:57;13.10;99.90
17954;DHT22;9102;53.548;9.926;2023-03-17T10:54:34;13.00;99.90
17954;DHT22;9102;53.548;9.926;2023-03-17T10:57:07;13.00;99.90
17954;DHT22;9102;53.548;9.926;2023-03-17T10:59:40;13.10;99.90
17954;DHT22;9102;53.548;9.926;2023-03-17T11:02:18;13.00;99.90
17954;DHT22;9102;53.548;9.926;2023-03-17T11:04:47;13.30;99.90
17954;DHT22;9102;53.548;9.926;2023-03-17T11:07:16;13.40;99.90
17954;DHT22;9102;53.548;9.926;2023-03-17T11:09:47;13.30;99.90
17954;DHT22;9102;53.548;9.926;2023-03-17T11:12:24;13.10;99.90
17954;DHT22;9102;53.548;9.926;2023-03-17T11:14:57;13.20;99.90
17954;DHT22;9102;53.548;9.926;2023-03-17T11:17:36;13.30;99.90
17954;DHT22;9102;53.548;9.926;2023-03-17T11:20:19;13.80;99.90
17954;DHT22;9102;53.548;9.926;2023-03-17T11:22:52;14.40;99.90
17954;DHT22;9102;53.548;9.926;2023-03-17T11:25:20;14.90;98.40
17954;DHT22;9102;53.548;9.926;2023-03-17T11:27:52;15.30;95.70
17954;DHT22;9102;53.548;9.926;2023-03-17T11:30:28;15.40;95.90
17954;DHT22;9102;53.548;9.926;2023-03-17T11:33:01;15.30;94.80
17954;DHT22;9102;53.548;9.926;2023-03-17T11:35:40;15.20;94.10
17954;DHT22;9102;53.548;9.926;2023-03-17T11:38:24;15.00;94.40
17954;DHT22;9102;53.548;9.926;2023-03-17T11:41:11;15.00;94.20
17954;DHT22;9102;53.548;9.926;2023-03-17T11:43:49;15.10;94.70
17954;DHT22;9102;53.548;9.926;2023-03-17T11:46:21;15.00;94.60
17954;DHT22;9102;53.548;9.926;2023-03-17T11:48:56;15.30;94.30
17954;DHT22;9102;53.548;9.926;2023-03-17T11:51:34;16.20;93.40
17954;DHT22;9102;53.548;9.926;2023-03-17T11:54:08;16.90;91.70
17954;DHT22;9102;53.548;9.926;2023-03-17T11:56:39;17.40;90.20
17954;DHT22;9102;53.548;9.926;2023-03-17T11:59:15;17.10;87.80
17954;DHT22;9102;53.548;9.926;2023-03-17T12:01:50;16.90;88.00
17954;DHT22;9102;53.548;9.926;2023-03-17T12:04:24;16.60;87.60
17954;DHT22;9102;53.548;9.926;2023-03-17T12:06:59;16.30;88.30
17954;DHT22;9102;53.548;9.926;2023-03-17T12:09:33;16.30;88.20
17954;DHT22;9102;53.548;9.926;2023-03-17T12:12:03;16.40;88.90
17954;DHT22;9102;53.548;9.926;2023-03-17T12:14:34;16.90;86.90
17954;DHT22;9102;53.548;9.926;2023-03-17T12:17:05;17.60;84.20
17954;DHT22;9102;53.548;9.926;2023-03-17T12:19:41;18.10;82.70
17954;DHT22;9102;53.548;9.926;2023-03-17T12:22:18;18.10;81.00
17954;DHT22;9102;53.548;9.926;2023-03-17T12:24:51;17.60;81.30
17954;DHT22;9102;53.548;9.926;2023-03-17T12:27:23;17.20;82.70
17954;DHT22;9102;53.548;9.926;2023-03-17T12:29:56;16.70;83.40
17954;DHT22;9102;53.548;9.926;2023-03-17T12:32:26;16.30;84.60
17954;DHT22;9102;53.548;9.926;2023-03-17T12:35:01;16.10;85.00
17954;DHT22;9102;53.548;9.926;2023-03-17T12:37:32;16.00;86.50
17954;DHT22;9102;53.548;9.926;2023-03-17T12:40:02;16.10;85.10
17954;DHT22;9102;53.548;9.926;2023-03-17T12:42:36;16.10;85.20
17954;DHT22;9102;53.548;9.926;2023-03-17T12:45:27;16.10;85.60
17954;DHT22;9102;53.548;9.926;2023-03-17T12:48:11;16.30;85.90
17954;DHT22;9102;53.548;9.926;2023-03-17T12:51:06;16.70;84.90
17954;DHT22;9102;53.548;9.926;2023-03-17T12:53:37;16.40;83.70
17954;DHT22;9102;53.548;9.926;2023-03-17T12:56:10;16.30;84.70
17954;DHT22;9102;53.548;9.926;2023-03-17T12:58:44;16.30;85.20
17954;DHT22;9102;53.548;9.926;2023-03-17T13:01:17;16.50;86.00
17954;DHT22;9102;53.548;9.926;2023-03-17T13:04:01;16.70;85.80
17954;DHT22;9102;53.548;9.926;2023-03-17T13:06:32;16.80;85.20
17954;DHT22;9102;53.548;9.926;2023-03-17T13:12:34;16.60;85.90
17954;DHT22;9102;53.548;9.926;2023-03-17T13:15:01;16.40;86.00
17954;DHT22;9102;53.548;9.926;2023-03-17T13:17:32;16.30;86.70
17954;DHT22;9102;53.548;9.926;2023-03-17T13:20:14;16.40;85.80
17954;DHT22;9102;53.548;9.926;2023-03-17T13:23:00;16.50;86.20
17954;DHT22;9102;53.548;9.926;2023-03-17T13:25:31;16.70;85.30
17954;DHT22;9102;53.548;9.926;2023-03-17T13:28:16;16.90;85.00
17954;DHT22;9102;53.548;9.926;2023-03-17T13:31:07;17.10;84.70
17954;DHT22;9102;53.548;9.926;2023-03-17T13:33:34;17.10;84.30
17954;DHT22;9102;53.548;9.926;2023-03-17T13:36:19;16.90;84.40
17954;DHT22;9102;53.548;9.926;2023-03-17T13:41:57;16.70;84.20
17954;DHT22;9102;53.548;9.926;2023-03-17T13:44:49;16.80;83.90
17954;DHT22;9102;53.548;9.926;2023-03-17T13:47:30;16.80;83.40
17954;DHT22;9102;53.548;9.926;2023-03-17T13:50:02;16.80;83.40
17954;DHT22;9102;53.548;9.926;2023-03-17T13:52:33;16.90;83.10
17954;DHT22;9102;53.548;9.926;2023-03-17T13:55:31;16.80;83.50
17954;DHT22;9102;53.548;9.926;2023-03-17T13:58:16;16.70;84.20
17954;DHT22;9102;53.548;9.926;2023-03-17T14:00:45;16.70;84.00
17954;DHT22;9102;53.548;9.926;2023-03-17T14:03:18;16.70;84.20
17954;DHT22;9102;53.548;9.926;2023-03-17T14:05:47;16.60;84.60
17954;DHT22;9102;53.548;9.926;2023-03-17T14:08:16;16.50;85.00
17954;DHT22;9102;53.548;9.926;2023-03-17T14:10:52;16.30;85.80
17954;DHT22;9102;53.548;9.926;2023-03-17T14:13:22;16.20;86.40
17954;DHT22;9102;53.548;9.926;2023-03-17T14:15:53;16.00;87.10
17954;DHT22;9102;53.548;9.926;2023-03-17T14:18:28;16.00;86.80
17954;DHT22;9102;53.548;9.926;2023-03-17T14:20:57;16.00;86.60
17954;DHT22;9102;53.548;9.926;2023-03-17T14:23:25;16.10;85.90
17954;DHT22;9102;53.548;9.926;2023-03-17T14:25:54;16.20;85.40
17954;DHT22;9102;53.548;9.926;2023-03-17T14:28:24;16.20;85.50
17954;DHT22;9102;53.548;9.926;2023-03-17T14:30:55;16.40;85.50
17954;DHT22;9102;53.548;9.926;2023-03-17T14:33:26;16.60;84.80
17954;DHT22;9102;53.548;9.926;2023-03-17T14:35:56;16.70;85.80
17954;DHT22;9102;53.548;9.926;2023-03-17T14:38:25;16.90;84.80
17954;DHT22;9102;53.548;9.926;2023-03-17T14:41:00;17.00;83.60
17954;DHT22;9102;53.548;9.926;2023-03-17T14:43:28;17.10;83.00
17954;DHT22;9102;53.548;9.926;2023-03-17T14:46:00;17.10;82.40
17954;DHT22;9102;53.548;9.926;2023-03-17T14:48:29;17.00;82.30
17954;DHT22;9102;53.548;9.926;2023-03-17T14:51:00;16.90;82.40
17954;DHT22;9102;53.548;9.926;2023-03-17T14:53:30;16.80;82.50
17954;DHT22;9102;53.548;9.926;2023-03-17T14:55:58;16.60;84.00
17954;DHT22;9102;53.548;9.926;2023-03-17T14:58:28;16.50;84.70
17954;DHT22;9102;53.548;9.926;2023-03-17T15:01:03;16.40;84.60
17954;DHT22;9102;53.548;9.926;2023-03-17T15:03:31;16.40;83.40
17954;DHT22;9102;53.548;9.926;2023-03-17T15:06:15;16.40;82.70
17954;DHT22;9102;53.548;9.926;2023-03-17T15:08:46;16.40;82.70
17954;DHT22;9102;53.548;9.926;2023-03-17T15:11:22;16.40;83.20
17954;DHT22;9102;53.548;9.926;2023-03-17T15:13:52;16.30;82.20
17954;DHT22;9102;53.548;9.926;2023-03-17T15:16:24;16.30;82.00
17954;DHT22;9102;53.548;9.926;2023-03-17T15:19:01;16.30;82.30
17954;DHT22;9102;53.548;9.926;2023-03-17T15:21:33;16.30;82.80
17954;DHT22;9102;53.548;9.926;2023-03-17T15:24:05;16.30;82.80
17954;DHT22;9102;53.548;9.926;2023-03-17T15:26:36;16.20;83.10
17954;DHT22;9102;53.548;9.926;2023-03-17T15:29:02;16.20;83.60
17954;DHT22;9102;53.548;9.926;2023-03-17T15:31:31;16.10;84.00
17954;DHT22;9102;53.548;9.926;2023-03-17T15:34:03;15.90;85.80
17954;DHT22;9102;53.548;9.926;2023-03-17T15:36:30;15.80;86.60
17954;DHT22;9102;53.548;9.926;2023-03-17T15:38:57;15.70;87.60
17954;DHT22;9102;53.548;9.926;2023-03-17T15:41:24;15.60;88.30
17954;DHT22;9102;53.548;9.926;2023-03-17T15:43:51;15.50;89.50
17954;DHT22;9102;53.548;9.926;2023-03-17T15:46:23;15.30;90.10
17954;DHT22;9102;53.548;9.926;2023-03-17T15:48:53;15.20;90.40
17954;DHT22;9102;53.548;9.926;2023-03-17T15:51:20;15.00;90.70
17954;DHT22;9102;53.548;9.926;2023-03-17T15:53:47;14.90;90.80
17954;DHT22;9102;53.548;9.926;2023-03-17T15:56:15;14.90;91.10
17954;DHT22;9102;53.548;9.926;2023-03-17T15:58:44;14.90;91.40
17954;DHT22;9102;53.548;9.926;2023-03-17T16:01:12;14.90;91.50
17954;DHT22;9102;53.548;9.926;2023-03-17T16:03:43;15.00;91.70
17954;DHT22;9102;53.548;9.926;2023-03-17T16:06:15;15.00;91.70
17954;DHT22;9102;53.548;9.926;2023-03-17T16:08:43;15.00;91.60
17954;DHT22;9102;53.548;9.926;2023-03-17T16:11:13;14.90;91.80
17954;DHT22;9102;53.548;9.926;2023-03-17T16:13:41;14.90;91.70
17954;DHT22;9102;53.548;9.926;2023-03-17T16:16:15;14.90;91.80
17954;DHT22;9102;53.548;9.926;2023-03-17T16:18:46;14.90;91.90
17954;DHT22;9102;53.548;9.926;2023-03-17T16:21:15;14.90;91.70
17954;DHT22;9102;53.548;9.926;2023-03-17T16:23:42;14.90;91.70